Time;durP1;ratioP1;P1;durP2;ratioP2;P2;SDS_P1;SDS_P2;PMS_P1;PMS_P2;Temp;Humidity;BMP_temperature;BMP_pressure;BME280_temperature;BME280_humidity;BME280_pressure;Samples;Min_cycle;Max_cycle;Signal;HPM_P1;HPM_P2
2022/09/01 00:02:28;;;;;;;23.93;21.37;;;14.50;99.90;;;;;;5026337;28;20439;-85
2022/09/01 00:04:58;;;;;;;23.70;21.60;;;14.60;99.90;;;;;;5040180;28;20625;-85
2022/09/01 00:07:31;;;;;;;22.77;20.67;;;14.70;99.90;;;;;;5034506;28;20499;-85
2022/09/01 00:09:58;;;;;;;21.63;19.53;;;14.70;99.90;;;;;;5030130;28;20489;-85
2022/09/01 00:12:25;;;;;;;22.70;20.60;;;14.70;99.90;;;;;;5026468;28;20505;-86
2022/09/01 00:14:51;;;;;;;21.27;19.30;;;14.60;99.90;;;;;;5027224;28;20489;-85
2022/09/01 00:17:16;;;;;;;21.33;19.23;;;14.70;99.90;;;;;;5028422;28;20538;-86
2022/09/01 00:19:43;;;;;;;21.23;19.23;;;14.70;99.90;;;;;;5029948;28;20583;-85
2022/09/01 00:22:09;;;;;;;21.00;19.17;;;14.70;99.90;;;;;;5027283;28;20176;-85
2022/09/01 00:24:35;;;;;;;22.37;20.07;;;14.70;99.90;;;;;;5023386;28;20485;-85
2022/09/01 00:27:00;;;;;;;18.87;17.07;;;14.60;99.90;;;;;;5032323;28;20176;-86
2022/09/01 00:29:26;;;;;;;20.33;18.27;;;14.60;99.90;;;;;;5025416;28;20478;-85
2022/09/01 00:31:52;;;;;;;20.67;18.77;;;14.60;99.90;;;;;;5026528;28;20691;-85
2022/09/01 00:34:19;;;;;;;21.37;19.37;;;14.50;99.90;;;;;;5036668;28;20242;-85
2022/09/01 00:36:45;;;;;;;20.70;18.93;;;14.50;99.90;;;;;;5036668;28;20468;-85
2022/09/01 00:39:10;;;;;;;21.73;19.60;;;14.40;99.90;;;;;;5021908;28;20443;-85
2022/09/01 00:41:39;;;;;;;21.20;19.30;;;14.40;99.90;;;;;;5024116;28;21010;-85
2022/09/01 00:44:10;;;;;;;24.30;21.90;;;14.30;99.90;;;;;;5030374;28;20644;-85
2022/09/01 00:46:43;;;;;;;21.20;19.20;;;14.20;99.90;;;;;;5028170;28;20577;-85
2022/09/01 00:49:19;;;;;;;22.40;20.10;;;14.30;99.90;;;;;;5040737;28;20470;-85
2022/09/01 00:51:53;;;;;;;24.67;22.30;;;14.30;99.90;;;;;;5036653;28;20787;-85
2022/09/01 00:54:22;;;;;;;24.03;21.70;;;14.20;99.90;;;;;;5022795;28;20450;-84
2022/09/01 00:56:48;;;;;;;22.70;20.40;;;14.20;99.90;;;;;;5023170;28;20453;-85
2022/09/01 00:59:17;;;;;;;23.30;21.07;;;14.20;99.90;;;;;;5023929;28;20447;-85
2022/09/01 01:01:43;;;;;;;23.57;21.37;;;14.20;99.90;;;;;;5030803;28;20469;-85
2022/09/01 01:04:13;;;;;;;21.87;19.77;;;14.20;99.90;;;;;;5034777;28;20517;-85
2022/09/01 01:07:03;;;;;;;23.13;20.93;;;14.30;99.90;;;;;;5031963;28;20646;-85
2022/09/01 01:09:33;;;;;;;23.60;21.30;;;14.30;99.90;;;;;;5026354;28;20623;-85
2022/09/01 01:12:01;;;;;;;24.13;21.73;;;14.20;99.90;;;;;;5033069;28;20604;-85
2022/09/01 01:14:30;;;;;;;24.40;22.10;;;14.10;99.90;;;;;;5026822;28;20454;-85
2022/09/01 01:16:57;;;;;;;25.57;22.77;;;14.10;99.90;;;;;;5028595;28;20499;-85
2022/09/01 01:23:09;;;;;;;24.60;22.10;;;14.10;99.90;;;;;;5025164;28;20494;-85
2022/09/01 01:25:35;;;;;;;24.07;21.57;;;14.00;99.90;;;;;;5024793;28;20437;-85
2022/09/01 01:28:26;;;;;;;25.30;22.90;;;14.10;99.90;;;;;;5022975;28;20483;-85
2022/09/01 01:31:00;;;;;;;24.27;21.97;;;14.10;99.90;;;;;;5028638;28;20195;-85
2022/09/01 01:33:30;;;;;;;26.30;23.70;;;14.20;99.90;;;;;;5028901;28;20534;-85
2022/09/01 01:35:56;;;;;;;22.77;20.47;;;14.20;99.90;;;;;;5037907;28;20521;-85
2022/09/01 01:38:24;;;;;;;24.30;22.03;;;14.20;99.90;;;;;;5024324;28;20943;-85
2022/09/01 01:40:52;;;;;;;23.73;21.23;;;14.10;99.90;;;;;;5027355;28;20521;-86
2022/09/01 01:43:21;;;;;;;25.77;23.10;;;14.20;99.90;;;;;;5037566;28;20437;-86
2022/09/01 01:45:50;;;;;;;24.03;21.83;;;14.20;99.90;;;;;;5034837;28;20456;-86
2022/09/01 01:48:21;;;;;;;23.90;21.50;;;14.10;99.90;;;;;;5022264;28;20446;-86
2022/09/01 01:50:48;;;;;;;23.30;21.20;;;14.20;99.90;;;;;;5027456;28;20808;-86
2022/09/01 01:53:18;;;;;;;24.00;21.70;;;14.20;99.90;;;;;;5022557;28;20445;-86
2022/09/01 01:55:44;;;;;;;23.20;20.93;;;14.20;99.90;;;;;;5020967;28;21126;-85
2022/09/01 01:58:10;;;;;;;24.63;22.20;;;14.20;99.90;;;;;;5039301;28;20465;-86
2022/09/01 02:00:37;;;;;;;26.07;23.57;;;14.30;99.90;;;;;;5026631;28;20474;-86
2022/09/01 02:03:04;;;;;;;24.90;22.50;;;14.30;99.90;;;;;;5029795;28;20445;-86
2022/09/01 02:05:31;;;;;;;24.60;22.00;;;14.20;99.90;;;;;;5031230;28;20948;-85
2022/09/01 02:08:04;;;;;;;24.23;21.90;;;14.20;99.90;;;;;;5038924;28;20951;-86
2022/09/01 02:10:33;;;;;;;22.27;20.07;;;14.20;99.90;;;;;;5035016;28;20884;-86
2022/09/01 02:13:04;;;;;;;23.77;20.23;;;14.20;99.90;;;;;;5034954;28;20756;-86
2022/09/01 02:15:43;;;;;;;23.90;21.57;;;14.30;99.90;;;;;;5036714;28;20543;-86
2022/09/01 02:18:10;;;;;;;22.13;20.03;;;14.30;99.90;;;;;;5027253;28;20438;-86
2022/09/01 02:20:36;;;;;;;22.13;20.00;;;14.30;99.90;;;;;;5035523;28;20460;-87
2022/09/01 02:23:08;;;;;;;21.93;19.90;;;14.30;99.90;;;;;;5018797;28;20439;-86
2022/09/01 02:25:34;;;;;;;20.97;19.07;;;14.30;99.90;;;;;;5037422;28;20184;-86
2022/09/01 02:28:02;;;;;;;20.07;18.27;;;14.20;99.90;;;;;;5023486;28;20510;-85
2022/09/01 02:30:31;;;;;;;21.37;19.27;;;14.20;99.90;;;;;;5020788;28;20525;-86
2022/09/01 02:32:58;;;;;;;21.53;19.47;;;14.20;99.90;;;;;;5030915;28;20438;-86
2022/09/01 02:35:33;;;;;;;20.50;18.50;;;14.10;99.90;;;;;;5033073;28;20776;-85
2022/09/01 02:37:59;;;;;;;20.77;18.77;;;14.10;99.90;;;;;;5028808;28;20441;-85
2022/09/01 02:40:29;;;;;;;21.93;19.50;;;14.00;99.90;;;;;;5025223;28;20884;-85
2022/09/01 02:42:55;;;;;;;22.20;20.10;;;14.00;99.90;;;;;;5023402;28;20451;-85
2022/09/01 02:45:23;;;;;;;21.80;19.77;;;14.00;99.90;;;;;;5018438;28;20443;-85
2022/09/01 02:47:50;;;;;;;22.50;20.43;;;14.00;99.90;;;;;;5027756;28;20564;-85
2022/09/01 02:50:17;;;;;;;24.47;22.07;;;13.90;99.90;;;;;;5016207;28;20479;-85
2022/09/01 02:52:45;;;;;;;23.10;20.80;;;13.80;99.90;;;;;;5031079;28;20438;-85
2022/09/01 02:55:11;;;;;;;23.67;21.27;;;13.80;99.90;;;;;;5025566;28;20506;-86
2022/09/01 02:57:36;;;;;;;23.57;21.27;;;13.70;99.90;;;;;;5026991;28;20472;-86
2022/09/01 03:00:19;;;;;;;22.07;19.97;;;13.70;99.90;;;;;;5028003;28;20542;-85
2022/09/01 03:02:47;;;;;;;24.50;22.03;;;13.80;99.90;;;;;;5030192;28;20676;-86
2022/09/01 03:05:15;;;;;;;24.83;22.33;;;13.80;99.90;;;;;;5039250;28;20452;-86
2022/09/01 03:07:41;;;;;;;23.07;20.87;;;13.70;99.90;;;;;;5029604;28;20446;-85
2022/09/01 03:10:08;;;;;;;23.83;21.43;;;13.80;99.90;;;;;;5037009;28;20633;-86
2022/09/01 03:12:34;;;;;;;24.97;22.47;;;13.70;99.90;;;;;;5037593;28;20435;-86
2022/09/01 03:15:00;;;;;;;25.60;23.10;;;13.70;99.90;;;;;;5040564;28;20446;-86
2022/09/01 03:17:25;;;;;;;26.23;23.57;;;13.60;99.90;;;;;;5037168;28;20437;-86
2022/09/01 03:19:51;;;;;;;30.63;27.40;;;13.50;99.90;;;;;;5035688;28;20491;-86
2022/09/01 03:22:17;;;;;;;30.60;27.40;;;13.50;99.90;;;;;;5034843;28;20199;-86
2022/09/01 03:24:42;;;;;;;29.93;26.83;;;13.50;99.90;;;;;;5037055;28;20286;-85
2022/09/01 03:27:10;;;;;;;32.07;28.73;;;13.50;99.90;;;;;;5036157;28;20187;-85
2022/09/01 03:29:37;;;;;;;32.17;28.67;;;13.50;99.90;;;;;;5040193;28;20215;-86
2022/09/01 03:32:03;;;;;;;31.50;28.10;;;13.50;99.90;;;;;;5037149;28;20748;-86
2022/09/01 03:34:28;;;;;;;33.23;28.93;;;13.60;99.90;;;;;;5038727;28;20444;-86
2022/09/01 03:36:57;;;;;;;33.20;29.70;;;13.70;99.90;;;;;;5029645;28;20814;-86
2022/09/01 03:39:22;;;;;;;34.57;30.57;;;13.70;99.90;;;;;;5037328;28;20270;-86
2022/09/01 03:41:48;;;;;;;35.03;31.37;;;13.70;99.90;;;;;;5040365;28;20532;-86
2022/09/01 03:44:15;;;;;;;34.03;30.33;;;13.70;99.90;;;;;;5038423;28;20184;-86
2022/09/01 03:46:54;;;;;;;40.37;32.00;;;13.70;99.90;;;;;;5042357;28;20188;-86
2022/09/01 03:49:23;;;;;;;39.70;34.40;;;13.60;99.90;;;;;;5033959;28;21030;-86
2022/09/01 03:51:51;;;;;;;38.73;31.70;;;13.70;99.90;;;;;;5039673;28;20723;-86
2022/09/01 03:54:17;;;;;;;37.30;32.60;;;13.80;99.90;;;;;;5040005;28;20445;-86
2022/09/01 03:56:49;;;;;;;37.97;31.87;;;13.80;99.90;;;;;;5036009;28;20430;-85
2022/09/01 03:59:18;;;;;;;35.40;31.60;;;13.80;99.90;;;;;;5039401;28;20549;-86
2022/09/01 04:01:44;;;;;;;33.80;30.27;;;13.80;99.90;;;;;;5036348;28;20486;-87
2022/09/01 04:04:13;;;;;;;32.43;29.23;;;13.70;99.90;;;;;;5045625;28;20445;-87
2022/09/01 04:06:41;;;;;;;33.90;30.30;;;13.70;99.90;;;;;;5023703;28;20450;-86
2022/09/01 04:09:06;;;;;;;34.57;30.07;;;13.80;99.90;;;;;;5035083;28;20795;-86
2022/09/01 04:11:32;;;;;;;32.37;28.53;;;13.70;99.90;;;;;;5038391;28;20448;-86
2022/09/01 04:13:59;;;;;;;30.83;27.77;;;13.60;99.90;;;;;;5029203;28;20176;-86
2022/09/01 04:19:24;;;;;;;27.73;24.97;;;13.50;99.90;;;;;;5028288;28;20920;-85
2022/09/01 04:21:53;;;;;;;30.90;27.70;;;13.50;99.90;;;;;;5033177;28;20463;-86
2022/09/01 04:24:22;;;;;;;28.80;25.70;;;13.40;99.90;;;;;;5028804;28;20972;-87
2022/09/01 04:26:49;;;;;;;31.67;26.83;;;13.30;99.90;;;;;;5031742;28;20442;-85
2022/09/01 04:29:26;;;;;;;32.40;29.10;;;13.40;99.90;;;;;;5029660;28;20513;-85
2022/09/01 04:31:56;;;;;;;30.63;27.40;;;13.50;99.90;;;;;;5030072;28;20434;-85
2022/09/01 04:34:23;;;;;;;31.17;27.87;;;13.50;99.90;;;;;;5025767;28;20454;-85
2022/09/01 04:36:53;;;;;;;33.33;29.83;;;13.60;99.90;;;;;;5016402;28;20595;-85
2022/09/01 04:39:19;;;;;;;35.43;30.63;;;13.60;99.90;;;;;;5028855;28;20472;-85
2022/09/01 04:41:45;;;;;;;33.53;29.73;;;13.70;99.90;;;;;;5036807;28;20430;-85
2022/09/01 04:44:12;;;;;;;36.63;31.03;;;13.70;99.90;;;;;;5035054;28;20438;-85
2022/09/01 04:46:45;;;;;;;33.10;29.60;;;13.80;99.90;;;;;;5034804;28;20444;-85
2022/09/01 04:49:14;;;;;;;31.00;27.80;;;13.90;99.90;;;;;;5031479;28;20523;-85
2022/09/01 04:51:43;;;;;;;31.97;28.70;;;14.00;99.90;;;;;;5031510;28;20468;-85
2022/09/01 04:54:11;;;;;;;31.10;27.80;;;14.00;99.90;;;;;;5030058;28;20939;-84
2022/09/01 04:56:37;;;;;;;31.67;28.23;;;14.00;99.90;;;;;;5029681;28;20441;-83
2022/09/01 04:59:05;;;;;;;33.90;30.20;;;14.00;99.90;;;;;;5033674;28;20533;-85
2022/09/01 05:01:41;;;;;;;33.73;30.17;;;13.80;99.90;;;;;;5034101;28;20942;-85
2022/09/01 05:04:13;;;;;;;33.87;29.97;;;13.80;99.90;;;;;;5025936;28;20961;-85
2022/09/01 05:06:41;;;;;;;30.93;27.50;;;13.80;99.90;;;;;;5027547;28;20447;-83
2022/09/01 05:09:08;;;;;;;29.80;26.40;;;13.90;99.90;;;;;;5037098;28;20474;-85
2022/09/01 05:11:36;;;;;;;30.30;27.07;;;13.90;99.90;;;;;;5024270;28;20434;-83
2022/09/01 05:14:05;;;;;;;30.67;26.90;;;13.80;99.90;;;;;;5023285;28;20500;-85
2022/09/01 05:16:32;;;;;;;35.43;28.30;;;13.80;99.90;;;;;;5012790;28;20437;-85
2022/09/01 05:19:00;;;;;;;29.83;25.67;;;13.70;99.90;;;;;;5016423;28;20470;-83
2022/09/01 05:21:28;;;;;;;28.23;25.23;;;13.70;99.90;;;;;;5016666;28;20715;-84
2022/09/01 05:23:57;;;;;;;27.07;24.37;;;13.70;99.90;;;;;;5017740;28;20468;-84
2022/09/01 05:26:43;;;;;;;27.30;21.40;;;13.70;99.90;;;;;;5014982;28;20443;-84
2022/09/01 05:29:12;;;;;;;27.57;24.70;;;13.70;99.90;;;;;;5013580;28;20473;-83
2022/09/01 05:31:39;;;;;;;28.37;25.37;;;13.80;99.90;;;;;;5017709;28;20937;-82
2022/09/01 05:34:08;;;;;;;27.90;24.90;;;13.80;99.90;;;;;;5017845;28;20549;-83
2022/09/01 05:36:40;;;;;;;25.47;22.97;;;13.80;99.90;;;;;;5030077;28;20449;-83
2022/09/01 05:39:08;;;;;;;25.40;22.83;;;14.00;99.90;;;;;;5036937;28;20962;-83
2022/09/01 05:41:34;;;;;;;24.40;21.90;;;14.00;99.90;;;;;;5029504;28;20441;-84
2022/09/01 05:44:07;;;;;;;25.83;23.00;;;14.10;99.90;;;;;;5027188;28;20909;-83
2022/09/01 05:46:34;;;;;;;25.03;22.63;;;14.30;99.90;;;;;;5019382;28;20442;-83
2022/09/01 05:48:59;;;;;;;23.73;21.43;;;14.40;99.90;;;;;;5017952;28;20545;-83
2022/09/01 05:51:27;;;;;;;24.50;22.10;;;14.50;99.90;;;;;;5020470;28;20853;-83
2022/09/01 05:53:57;;;;;;;23.47;21.17;;;14.60;99.90;;;;;;5026978;28;20556;-83
2022/09/01 05:56:25;;;;;;;23.10;20.90;;;14.80;99.90;;;;;;5020081;28;20488;-82
2022/09/01 05:58:52;;;;;;;22.60;20.30;;;14.90;99.90;;;;;;5018472;28;20437;-83
2022/09/01 06:01:25;;;;;;;24.27;21.87;;;15.10;99.90;;;;;;5019281;28;20445;-84
2022/09/01 06:03:53;;;;;;;23.57;21.30;;;15.20;99.90;;;;;;5023245;28;20499;-83
2022/09/01 06:06:33;;;;;;;;;;;;;;;;;;;;;
2022/09/01 06:09:02;;;;;;;24.87;22.47;;;15.30;99.90;;;;;;5050330;28;20998;-82
2022/09/01 06:11:31;;;;;;;24.43;22.10;;;15.40;99.90;;;;;;5041872;28;21040;-83
2022/09/01 06:13:58;;;;;;;25.47;22.87;;;15.40;99.90;;;;;;5026834;28;20448;-85
2022/09/01 06:16:24;;;;;;;26.60;24.03;;;15.50;99.90;;;;;;5025564;28;20572;-86
2022/09/01 06:18:52;;;;;;;26.87;23.20;;;15.50;99.90;;;;;;5022280;28;20569;-85
2022/09/01 06:21:18;;;;;;;24.43;22.00;;;15.50;99.90;;;;;;5012890;28;20180;-85
2022/09/01 06:23:44;;;;;;;23.40;21.10;;;15.60;99.90;;;;;;5020131;28;20535;-85
2022/09/01 06:26:37;;;;;;;22.23;20.00;;;15.80;99.90;;;;;;5021694;28;20777;-85
2022/09/01 06:29:08;;;;;;;21.33;19.23;;;15.80;99.90;;;;;;5021237;28;20473;-84
2022/09/01 06:31:38;;;;;;;21.67;19.57;;;16.00;99.90;;;;;;5024938;28;20426;-85
2022/09/01 06:34:05;;;;;;;23.00;20.70;;;16.10;99.90;;;;;;5028207;28;20446;-84
2022/09/01 06:36:35;;;;;;;21.57;19.40;;;16.20;99.90;;;;;;5029163;28;20442;-85
2022/09/01 06:39:01;;;;;;;21.73;19.63;;;16.20;99.90;;;;;;5037634;28;20440;-84
2022/09/01 06:41:27;;;;;;;20.80;18.90;;;16.30;99.90;;;;;;5031050;28;20506;-85
2022/09/01 06:43:54;;;;;;;20.77;18.67;;;16.40;99.90;;;;;;5022697;28;20601;-85
2022/09/01 06:46:22;;;;;;;19.80;17.90;;;16.50;99.90;;;;;;5030536;28;20561;-85
2022/09/01 06:48:48;;;;;;;19.97;17.97;;;16.60;99.90;;;;;;5025461;28;20486;-84
2022/09/01 06:51:19;;;;;;;20.73;18.73;;;16.70;99.90;;;;;;5030383;28;20489;-85
2022/09/01 06:53:55;;;;;;;19.20;17.40;;;16.90;99.90;;;;;;5021471;28;20187;-85
2022/09/01 06:56:32;;;;;;;19.40;17.67;;;17.10;99.90;;;;;;5030034;28;20441;-85
2022/09/01 06:59:00;;;;;;;20.47;18.53;;;17.30;99.90;;;;;;5029667;28;20488;-84
2022/09/01 07:01:36;;;;;;;18.33;16.73;;;17.30;99.90;;;;;;5020455;28;20438;-84
2022/09/01 07:04:02;;;;;;;19.33;17.53;;;17.30;99.90;;;;;;5038469;28;20503;-85
2022/09/01 07:06:30;;;;;;;19.73;17.83;;;17.10;99.90;;;;;;5025676;28;20919;-85
2022/09/01 07:09:00;;;;;;;19.40;17.50;;;17.10;99.90;;;;;;5031347;28;20206;-84
2022/09/01 07:11:48;;;;;;;18.83;17.03;;;17.10;99.90;;;;;;5030491;28;20434;-84
2022/09/01 07:14:31;;;;;;;18.60;16.70;;;17.10;99.90;;;;;;5025359;28;20503;-83
2022/09/01 07:17:11;;;;;;;18.00;16.40;;;17.20;99.90;;;;;;5027251;28;20503;-83
2022/09/01 07:19:42;;;;;;;17.80;16.13;;;17.20;99.90;;;;;;5035977;28;20963;-83
2022/09/01 07:22:11;;;;;;;17.97;16.07;;;17.10;99.90;;;;;;5024508;28;20442;-83
2022/09/01 07:24:38;;;;;;;18.63;17.03;;;17.30;99.90;;;;;;5043671;28;20450;-84
2022/09/01 07:27:13;;;;;;;22.20;19.90;;;17.30;99.90;;;;;;5045884;28;20498;-84
2022/09/01 07:29:39;;;;;;;19.70;17.80;;;17.40;99.90;;;;;;5023117;28;20561;-84
2022/09/01 07:32:05;;;;;;;19.00;17.27;;;17.60;99.90;;;;;;5022530;28;20454;-84
2022/09/01 07:34:31;;;;;;;17.63;15.77;;;17.70;99.90;;;;;;5028583;28;20538;-83
2022/09/01 07:37:02;;;;;;;18.63;17.10;;;17.80;99.90;;;;;;5032948;28;20495;-84
2022/09/01 07:39:28;;;;;;;15.57;14.27;;;17.90;99.90;;;;;;5040972;28;20427;-85
2022/09/01 07:41:54;;;;;;;16.73;15.23;;;18.30;99.90;;;;;;5034896;28;20442;-84
2022/09/01 07:44:21;;;;;;;18.23;15.90;;;18.60;99.90;;;;;;5025386;28;20449;-83
2022/09/01 07:47:29;;;;;;;;;;;;;;;;;;;;;
2022/09/01 07:50:07;;;;;;;17.40;15.90;;;18.40;99.90;;;;;;5026995;28;21062;-84
2022/09/01 07:52:52;;;;;;;;;;;;;;;;;;;;;
2022/09/01 07:55:33;;;;;;;13.13;12.03;;;18.70;99.90;;;;;;5028329;28;20608;-84
2022/09/01 07:57:59;;;;;;;14.70;13.40;;;19.00;99.90;;;;;;5029630;28;20446;-84
2022/09/01 08:00:27;;;;;;;15.47;14.07;;;19.20;99.90;;;;;;5023973;28;20446;-84
2022/09/01 08:03:28;;;;;;;16.00;14.50;;;19.10;99.90;;;;;;5025754;28;20191;-86
2022/09/01 08:06:06;;;;;;;14.47;13.07;;;19.10;99.90;;;;;;5024989;28;20448;-84
2022/09/01 08:08:36;;;;;;;14.07;12.90;;;19.00;99.90;;;;;;5044275;28;20833;-84
2022/09/01 08:11:03;;;;;;;13.53;12.33;;;18.80;99.90;;;;;;5038696;28;20446;-83
2022/09/01 08:14:17;;;;;;;13.97;12.67;;;18.90;99.90;;;;;;5025203;28;20530;-83
2022/09/01 08:16:48;;;;;;;10.23;9.43;;;18.80;99.90;;;;;;5025688;28;20439;-84
2022/09/01 08:19:18;;;;;;;12.57;11.47;;;19.00;99.90;;;;;;5028316;28;20438;-84
2022/09/01 08:21:43;;;;;;;14.10;12.63;;;19.10;99.90;;;;;;5025357;28;20503;-84
2022/09/01 08:24:11;;;;;;;12.63;11.53;;;19.00;99.90;;;;;;5023511;28;20455;-84
2022/09/01 08:26:37;;;;;;;10.40;9.50;;;18.90;99.90;;;;;;5030005;28;20440;-83
2022/09/01 08:29:03;;;;;;;11.87;10.87;;;19.00;99.90;;;;;;5027698;28;20259;-83
2022/09/01 08:31:28;;;;;;;11.80;10.80;;;19.00;99.90;;;;;;5027061;28;20191;-85
2022/09/01 08:33:54;;;;;;;11.37;10.37;;;19.20;99.90;;;;;;5026900;28;20442;-84
2022/09/01 08:36:20;;;;;;;11.40;10.40;;;19.10;99.90;;;;;;5028763;28;20564;-84
2022/09/01 08:38:46;;;;;;;10.50;9.70;;;19.10;99.90;;;;;;5057959;28;20264;-84
2022/09/01 08:41:31;;;;;;;10.90;10.00;;;19.30;99.90;;;;;;5040468;28;20469;-84
2022/09/01 08:44:28;;;;;;;10.10;9.10;;;19.70;99.90;;;;;;5029600;28;20211;-84
2022/09/01 08:47:20;;;;;;;9.97;9.17;;;20.00;99.90;;;;;;5014674;28;20495;-83
2022/09/01 08:49:47;;;;;;;9.73;8.93;;;20.10;99.90;;;;;;5027542;28;20580;-83
2022/09/01 08:52:32;;;;;;;10.30;9.50;;;20.10;99.90;;;;;;5024092;28;20525;-84
2022/09/01 08:55:26;;;;;;;10.53;9.63;;;20.20;99.90;;;;;;5038980;28;20752;-84
2022/09/01 08:57:54;;;;;;;11.40;10.30;;;20.10;99.90;;;;;;5041772;28;20657;-84
2022/09/01 09:00:23;;;;;;;9.30;8.53;;;19.90;99.90;;;;;;5033524;28;20442;-85
2022/09/01 09:03:13;;;;;;;10.73;9.90;;;19.80;99.90;;;;;;5016859;28;20445;-84
2022/09/01 09:05:45;;;;;;;9.63;8.93;;;19.90;99.90;;;;;;5027953;28;20524;-84
2022/09/01 09:08:38;;;;;;;9.00;8.20;;;19.90;99.90;;;;;;5039951;28;20521;-84
2022/09/01 09:11:44;;;;;;;8.50;7.90;;;20.00;99.90;;;;;;5037441;28;20454;-84
2022/09/01 09:14:27;;;;;;;8.73;7.93;;;20.00;99.90;;;;;;5018322;28;20485;-84
2022/09/01 09:17:05;;;;;;;8.30;7.70;;;19.80;99.90;;;;;;5047045;28;20953;-84
2022/09/01 09:19:41;;;;;;;8.07;7.37;;;19.70;99.90;;;;;;5040007;28;20483;-84
2022/09/01 09:22:17;;;;;;;7.27;6.67;;;20.00;99.90;;;;;;5039549;28;20536;-84
2022/09/01 09:25:02;;;;;;;9.70;8.80;;;20.40;99.90;;;;;;5038452;28;20445;-85
2022/09/01 09:27:39;;;;;;;8.10;7.50;;;20.70;99.90;;;;;;5029970;28;20954;-84
2022/09/01 09:30:19;;;;;;;7.70;7.00;;;20.80;99.90;;;;;;5039134;28;20485;-84
2022/09/01 09:32:44;;;;;;;7.30;6.80;;;20.70;99.90;;;;;;5030166;28;20446;-84
2022/09/01 09:35:22;;;;;;;7.00;6.50;;;20.80;99.90;;;;;;5035565;28;20969;-84
2022/09/01 09:37:48;;;;;;;8.80;7.90;;;21.00;99.90;;;;;;5032264;28;20187;-84
2022/09/01 09:40:17;;;;;;;7.43;6.73;;;21.00;99.90;;;;;;5041334;28;20430;-84
2022/09/01 09:42:55;;;;;;;7.70;7.10;;;20.80;99.90;;;;;;5039357;28;20544;-85
2022/09/01 09:45:25;;;;;;;5.93;5.53;;;20.70;99.90;;;;;;5053187;28;20433;-84
2022/09/01 09:47:52;;;;;;;5.77;5.37;;;20.90;99.90;;;;;;5039423;28;20446;-84
2022/09/01 09:50:30;;;;;;;6.40;5.87;;;21.10;99.90;;;;;;5041445;28;20474;-85
2022/09/01 09:53:15;;;;;;;6.50;5.97;;;21.20;99.90;;;;;;5039705;28;20445;-84
2022/09/01 09:55:59;;;;;;;5.70;5.30;;;21.00;99.90;;;;;;5038100;28;20439;-84
2022/09/01 09:58:34;;;;;;;6.30;5.90;;;20.80;99.90;;;;;;5041486;28;20591;-83
2022/09/01 10:01:04;;;;;;;6.57;6.07;;;20.80;99.90;;;;;;5035685;28;20433;-84
2022/09/01 10:03:47;;;;;;;5.90;5.50;;;20.80;99.90;;;;;;5036707;28;20437;-84
2022/09/01 10:06:39;;;;;;;5.90;5.50;;;20.50;99.90;;;;;;5035819;28;20511;-83
2022/09/01 10:09:08;;;;;;;4.93;4.63;;;20.70;99.90;;;;;;5027874;28;20966;-83
2022/09/01 10:11:42;;;;;;;5.73;5.33;;;20.80;99.90;;;;;;5034081;28;20970;-84
2022/09/01 10:14:28;;;;;;;5.43;4.93;;;20.90;99.90;;;;;;5033882;28;20579;-84
2022/09/01 10:17:03;;;;;;;5.40;5.00;;;21.30;99.90;;;;;;5024080;28;20451;-85
2022/09/01 10:19:33;;;;;;;5.13;4.60;;;21.10;99.90;;;;;;5027483;28;20483;-84
2022/09/01 10:21:59;;;;;;;5.60;5.20;;;20.90;99.90;;;;;;5026026;28;20438;-83
2022/09/01 10:24:36;;;;;;;4.27;3.97;;;20.90;99.90;;;;;;5028889;28;21056;-85
2022/09/01 10:27:31;;;;;;;6.27;4.73;;;20.90;99.90;;;;;;5016598;28;20527;-84
2022/09/01 10:30:03;;;;;;;5.80;5.40;;;21.20;99.90;;;;;;5031966;28;20481;-85
2022/09/01 10:32:43;;;;;;;4.93;4.53;;;21.60;99.90;;;;;;5048026;28;20434;-84
2022/09/01 10:35:31;;;;;;;5.50;5.20;;;21.60;99.90;;;;;;5040059;28;20461;-84
2022/09/01 10:38:01;;;;;;;5.37;5.00;;;21.40;99.90;;;;;;5031477;28;20445;-84
2022/09/01 10:40:27;;;;;;;5.53;5.13;;;21.40;99.90;;;;;;5053083;28;20433;-84
2022/09/01 10:42:56;;;;;;;5.30;4.90;;;21.20;99.90;;;;;;5037231;28;20947;-84
2022/09/01 10:45:39;;;;;;;5.30;4.90;;;21.20;99.90;;;;;;5043475;28;20430;-84
2022/09/01 10:48:22;;;;;;;5.53;5.13;;;21.30;99.90;;;;;;5042920;28;20857;-84
2022/09/01 10:51:04;;;;;;;5.23;4.93;;;21.60;99.90;;;;;;5041687;28;20473;-85
2022/09/01 10:54:09;;;;;;;4.60;4.30;;;22.10;99.90;;;;;;5037503;28;20800;-84
2022/09/01 10:56:40;;;;;;;4.17;3.87;;;22.90;99.90;;;;;;5038183;28;20469;-84
2022/09/01 10:59:21;;;;;;;4.80;4.50;;;23.20;99.40;;;;;;5044309;28;20444;-85
2022/09/01 11:01:47;;;;;;;4.67;4.37;;;23.10;99.90;;;;;;5044667;28;20437;-84
2022/09/01 11:04:42;;;;;;;4.67;4.33;;;22.70;99.90;;;;;;5053870;28;20425;-84
2022/09/01 11:07:22;;;;;;;5.10;4.70;;;22.40;99.90;;;;;;5035448;28;20191;-84
2022/09/01 11:10:13;;;;;;;5.30;5.00;;;21.80;99.90;;;;;;5044578;28;20504;-85
2022/09/01 11:13:09;;;;;;;4.93;4.63;;;22.30;99.90;;;;;;5039521;28;20532;-84
2022/09/01 11:15:41;;;;;;;4.67;4.37;;;23.50;99.90;;;;;;5042111;28;21298;-84
2022/09/01 11:18:25;;;;;;;5.50;5.10;;;24.30;98.40;;;;;;5039399;28;20442;-84
2022/09/01 11:20:51;;;;;;;5.07;4.77;;;23.90;97.60;;;;;;5034339;28;20941;-84
2022/09/01 11:23:29;;;;;;;5.17;4.77;;;23.30;99.30;;;;;;5032846;28;20450;-84
2022/09/01 11:26:03;;;;;;;4.93;4.63;;;23.90;99.90;;;;;;5023189;28;20439;-84
2022/09/01 11:28:31;;;;;;;4.50;4.20;;;24.10;99.40;;;;;;5025665;28;20446;-84
2022/09/01 11:31:05;;;;;;;4.60;4.30;;;23.70;98.20;;;;;;5033437;28;20509;-84
2022/09/01 11:33:59;;;;;;;4.03;3.83;;;23.00;98.50;;;;;;5030852;28;20441;-84
2022/09/01 11:36:33;;;;;;;4.50;4.20;;;22.50;98.60;;;;;;5048195;28;20446;-84
2022/09/01 11:39:09;;;;;;;4.27;3.97;;;23.10;98.30;;;;;;5039036;28;20523;-85
2022/09/01 11:42:10;;;;;;;4.30;4.00;;;23.60;99.00;;;;;;5042398;28;20868;-85
2022/09/01 11:44:58;;;;;;;5.23;4.83;;;23.40;97.80;;;;;;5020315;28;20442;-85
2022/09/01 11:47:37;;;;;;;5.03;4.73;;;23.10;99.20;;;;;;5047300;28;20469;-85
2022/09/01 11:50:14;;;;;;;4.30;4.00;;;22.60;98.10;;;;;;5034884;28;20481;-85
2022/09/01 11:53:01;;;;;;;4.83;4.53;;;22.40;99.70;;;;;;5036839;28;20490;-84
2022/09/01 11:55:39;;;;;;;5.37;4.97;;;22.50;99.80;;;;;;5038248;28;20445;-84
2022/09/01 11:58:09;;;;;;;5.00;4.70;;;22.90;99.80;;;;;;5031314;28;20434;-84
2022/09/01 12:00:37;;;;;;;5.60;5.20;;;23.20;99.90;;;;;;5034349;28;20430;-85
2022/09/01 12:03:29;;;;;;;6.00;5.50;;;23.10;99.40;;;;;;5026065;28;20447;-87
2022/09/01 12:06:02;;;;;;;5.27;4.93;;;22.40;97.90;;;;;;5040069;28;20530;-84
2022/09/01 12:08:32;;;;;;;5.30;4.80;;;22.40;99.40;;;;;;5034012;28;20434;-84
2022/09/01 12:11:11;;;;;;;5.23;4.83;;;22.40;99.60;;;;;;5036042;28;20468;-84
2022/09/01 12:13:38;;;;;;;5.07;4.77;;;23.10;99.00;;;;;;5043804;28;20492;-84
2022/09/01 12:16:08;;;;;;;4.63;4.33;;;23.60;98.50;;;;;;5032972;28;20884;-84
2022/09/01 12:18:38;;;;;;;5.00;4.63;;;24.20;95.70;;;;;;5033396;28;20877;-84
2022/09/01 12:21:07;;;;;;;4.43;4.13;;;23.60;97.70;;;;;;5031411;28;20446;-84
2022/09/01 12:23:39;;;;;;;4.67;4.30;;;23.40;98.80;;;;;;5027152;28;20809;-84
2022/09/01 12:26:30;;;;;;;4.47;4.07;;;23.70;97.70;;;;;;5032828;28;20498;-83
2022/09/01 12:28:56;;;;;;;5.30;4.97;;;24.10;96.60;;;;;;5007510;28;20462;-84
2022/09/01 12:31:26;;;;;;;4.73;4.30;;;24.40;97.00;;;;;;5029077;28;20496;-85
2022/09/01 12:37:23;;;;;;;4.83;4.53;;;23.70;96.00;;;;;;5024732;28;20480;-84
2022/09/01 12:39:56;;;;;;;4.80;4.50;;;24.10;96.30;;;;;;5030672;28;20434;-84
2022/09/01 12:42:26;;;;;;;5.13;4.73;;;24.30;95.80;;;;;;5040872;28;20432;-84
2022/09/01 12:44:56;;;;;;;4.87;4.57;;;24.50;94.20;;;;;;5038148;28;20442;-83
2022/09/01 12:47:46;;;;;;;5.23;4.73;;;24.60;96.10;;;;;;5031558;28;20446;-84
2022/09/01 12:50:11;;;;;;;5.27;4.93;;;24.40;96.30;;;;;;5037869;28;20477;-84
2022/09/01 12:52:53;;;;;;;5.43;5.10;;;24.50;97.80;;;;;;5033006;28;20515;-83
2022/09/01 12:55:24;;;;;;;4.97;4.67;;;24.20;96.40;;;;;;5027758;28;20320;-84
2022/09/01 12:57:59;;;;;;;5.60;5.10;;;23.90;96.80;;;;;;5029819;28;20537;-84
2022/09/01 13:00:49;;;;;;;5.37;5.07;;;23.90;98.10;;;;;;5026224;28;20438;-84
2022/09/01 13:03:16;;;;;;;5.63;5.20;;;23.70;97.60;;;;;;5042359;28;20434;-84
2022/09/01 13:05:53;;;;;;;5.70;5.20;;;23.60;98.40;;;;;;5028252;28;20491;-83
2022/09/01 13:08:25;;;;;;;5.77;5.37;;;23.50;97.60;;;;;;5029639;28;20445;-83
2022/09/01 13:10:53;;;;;;;4.93;4.63;;;24.00;99.40;;;;;;5034239;28;20478;-84
2022/09/01 13:13:20;;;;;;;4.93;4.63;;;25.40;96.60;;;;;;5039176;28;20438;-86
2022/09/01 13:15:52;;;;;;;5.10;4.80;;;26.10;95.20;;;;;;5027981;28;20450;-83